Terminal Aerodrome Forecast
Issued by NWS Cleveland, OH

Home | Current Version | Previous Version | Text Only | Print | Product List | Glossary On
Versions: 1 2 3 4 5 6 7 8 9 10 11 12 13
688
FTUS41 KCLE 241723
TAFCAK
TAF
KCAK 241723Z 2418/2518 24010KT P6SM SKC
     FM250100 VRB03KT P6SM SKC
     FM251600 20008KT P6SM SCT250=

USA.gov is the U.S. government's official web portal to all federal, state and local government web resources and services.